Time;durP1;ratioP1;P1;durP2;ratioP2;P2;SDS_P1;SDS_P2;PMS_P1;PMS_P2;Temp;Humidity;BMP_temperature;BMP_pressure;BME280_temperature;BME280_humidity;BME280_pressure;Samples;Min_cycle;Max_cycle;Signal;HPM_P1;HPM_P2
2021/11/03 00:03:20;;;;;;;6.00;2.53;;;;;;;-145.69;100.00;71322.81;5053498;28;20202;-78
2021/11/03 00:09:27;;;;;;;6.63;1.90;;;;;;;-145.69;100.00;71302.91;5053539;28;20195;-78
2021/11/03 00:15:17;;;;;;;4.03;1.90;;;;;;;-145.69;100.00;71290.97;5053631;28;20194;-79
2021/11/03 00:17:44;;;;;;;3.17;2.40;;;;;;;-145.69;100.00;71263.09;5052314;28;20242;-77
2021/11/03 00:20:12;;;;;;;3.97;2.43;;;;;;;-145.69;100.00;71247.19;5053261;28;20703;-78
2021/11/03 00:22:38;;;;;;;3.10;1.97;;;;;;;-145.69;100.00;71235.25;5053598;28;20272;-79
2021/11/03 00:28:28;;;;;;;3.10;2.13;;;;;;;-145.69;100.00;71225.31;5053483;28;20787;-78
2021/11/03 00:41:30;;;;;;;4.70;1.90;;;;;;;-145.69;100.00;71195.47;5053045;28;20547;-78
2021/11/03 00:43:56;;;;;;;2.63;1.70;;;;;;;-145.69;100.00;71207.38;5052564;28;20211;-77
2021/11/03 00:46:23;;;;;;;3.43;1.97;;;;;;;-145.69;100.00;71187.50;5072442;28;20191;-78
2021/11/03 00:52:11;;;;;;;7.77;2.20;;;;;;;-145.69;100.00;71141.72;5073114;28;20243;-77
2021/11/03 00:54:37;;;;;;;5.40;1.70;;;;;;;-145.69;100.00;71129.78;5073742;28;20550;-78
2021/11/03 00:57:06;;;;;;;2.73;1.20;;;;;;;-145.69;100.00;71153.66;5072398;28;20661;-78
2021/11/03 00:59:32;;;;;;;2.57;1.80;;;;;;;-145.69;100.00;71141.72;5072603;28;20696;-78
2021/11/03 01:05:24;;;;;;;1.93;1.43;;;;;;;-145.69;100.00;71173.56;5072924;28;20190;-78
2021/11/03 01:07:51;;;;;;;2.93;1.30;;;;;;;-145.69;100.00;71179.53;5071311;28;20670;-78
2021/11/03 01:13:41;;;;;;;2.77;1.57;;;;;;;-145.69;100.00;71157.66;5076771;28;20706;-77
2021/11/03 01:16:07;;;;;;;5.23;1.90;;;;;;;-145.69;100.00;71157.66;5075654;28;20566;-77
2021/11/03 01:21:55;;;;;;;3.90;1.40;;;;;;;-145.69;100.00;71147.69;5076498;28;20260;-78
2021/11/03 01:28:06;;;;;;;2.03;1.50;;;;;;;-145.69;100.00;71165.59;5076334;28;20266;-78
2021/11/03 01:33:56;;;;;;;1.60;1.30;;;;;;;-145.69;100.00;71179.53;5076130;28;20659;-78
2021/11/03 01:36:22;;;;;;;2.03;1.40;;;;;;;-145.69;100.00;71187.50;5075338;28;20226;-78
2021/11/03 01:42:10;;;;;;;1.67;1.33;;;;;;;-145.69;100.00;71157.66;5075984;28;20194;-78
2021/11/03 01:44:37;;;;;;;3.07;1.30;;;;;;;-145.69;100.00;71157.66;5074127;28;20202;-78
2021/11/03 01:50:33;;;;;;;1.27;0.90;;;;;;;-145.69;100.00;71119.84;5076189;28;20201;-77
2021/11/03 01:53:05;;;;;;;1.37;1.20;;;;;;;-145.69;100.00;71111.88;5075379;28;20249;-77
2021/11/03 01:58:58;;;;;;;3.87;1.30;;;;;;;-145.69;100.00;71095.97;5076156;28;20267;-78
2021/11/03 02:05:29;;;;;;;3.80;0.93;;;;;;;-145.69;100.00;71101.94;5075790;28;20217;-78
2021/11/03 02:11:22;;;;;;;1.50;1.20;;;;;;;-145.69;100.00;71078.06;5075804;28;20189;-78
2021/11/03 02:17:21;;;;;;;1.37;0.97;;;;;;;-145.69;100.00;71074.09;5075419;28;20243;-79
2021/11/03 02:23:17;;;;;;;1.60;1.10;;;;;;;-145.69;100.00;71054.19;5074978;28;20714;-79
2021/11/03 02:29:08;;;;;;;2.87;1.07;;;;;;;-145.69;100.00;71044.22;5075332;28;20319;-78
2021/11/03 02:34:56;;;;;;;2.07;1.23;;;;;;;-145.69;100.00;71044.22;5075528;28;20235;-79
2021/11/03 02:41:38;;;;;;;1.70;1.20;;;;;;;-145.69;100.00;71042.25;5074948;28;20291;-78
2021/11/03 02:47:28;;;;;;;3.43;1.17;;;;;;;-145.69;100.00;71028.31;5074994;28;20652;-78
2021/11/03 02:53:34;;;;;;;1.87;1.20;;;;;;;-145.69;100.00;71044.22;5074781;28;20247;-78
2021/11/03 02:59:28;;;;;;;3.20;1.20;;;;;;;-145.69;100.00;71030.31;5074648;28;20699;-79
2021/11/03 03:05:24;;;;;;;1.13;0.90;;;;;;;-145.69;100.00;71010.41;5074534;28;20653;-79
2021/11/03 03:11:12;;;;;;;1.90;0.97;;;;;;;-145.69;100.00;70984.53;5074517;28;20233;-78
2021/11/03 03:13:39;;;;;;;2.10;1.17;;;;;;;-145.69;100.00;70980.56;5073873;28;20692;-78
2021/11/03 03:19:34;;;;;;;0.93;0.83;;;;;;;-145.69;100.00;70968.63;5074271;28;20226;-78
2021/11/03 03:25:39;;;;;;;6.23;1.37;;;;;;;-145.69;100.00;70980.56;5074135;28;20205;-79
2021/11/03 03:31:28;;;;;;;1.33;0.90;;;;;;;-145.69;100.00;70978.56;5073967;28;20231;-78
2021/11/03 03:33:57;;;;;;;1.00;0.70;;;;;;;-145.69;100.00;70992.50;5071941;28;20209;-78
2021/11/03 03:40:05;;;;;;;2.27;1.10;;;;;;;-145.69;100.00;70996.47;5066865;28;20292;-78
2021/11/03 03:42:33;;;;;;;3.03;1.17;;;;;;;-145.69;100.00;70996.47;5073508;28;20248;-79
2021/11/03 03:48:21;;;;;;;1.47;0.70;;;;;;;-145.69;100.00;71012.41;5073884;28;20342;-79
2021/11/03 03:50:50;;;;;;;1.17;0.80;;;;;;;-145.69;100.00;71000.47;5072860;28;20229;-79
2021/11/03 03:53:17;;;;;;;1.30;0.80;;;;;;;-145.69;100.00;71008.41;5073389;28;20233;-79
2021/11/03 03:59:06;;;;;;;1.57;0.70;;;;;;;-145.69;100.00;70994.50;5073842;28;20270;-79
2021/11/03 04:04:55;;;;;;;0.97;0.70;;;;;;;-145.69;100.00;71026.31;5073808;28;20233;-79
2021/11/03 04:07:21;;;;;;;1.77;1.07;;;;;;;-145.69;100.00;71032.28;5073316;28;20214;-79
2021/11/03 04:09:48;;;;;;;0.93;0.93;;;;;;;-145.69;100.00;71052.19;5072718;28;20210;-79
2021/11/03 04:15:37;;;;;;;0.93;0.80;;;;;;;-145.69;100.00;71064.13;5073767;28;20205;-79
2021/11/03 04:18:04;;;;;;;1.57;0.90;;;;;;;-145.69;100.00;71056.16;5072773;28;20210;-79
2021/11/03 04:20:31;;;;;;;1.37;0.80;;;;;;;-145.69;100.00;71048.22;5073108;28;20716;-78
2021/11/03 04:29:41;;;;;;;1.13;0.77;;;;;;;-145.69;100.00;71078.06;5073270;28;20193;-79
2021/11/03 04:32:09;;;;;;;4.90;0.90;;;;;;;-145.69;100.00;71082.03;5072715;28;20697;-79
2021/11/03 04:34:36;;;;;;;1.57;0.70;;;;;;;-145.69;100.00;71088.00;5072772;28;20207;-78
2021/11/03 04:50:20;;;;;;;2.20;0.70;;;;;;;-145.69;100.00;71048.22;5077151;28;20553;-79
2021/11/03 04:52:47;;;;;;;1.20;0.80;;;;;;;-145.69;100.00;71032.28;5076042;28;20202;-78
2021/11/03 04:58:34;;;;;;;0.83;0.67;;;;;;;-145.69;100.00;70972.59;5076349;28;20668;-78
2021/11/03 05:04:57;;;;;;;0.83;0.60;;;;;;;-145.69;97.27;70924.84;5076921;28;20248;-77
2021/11/03 05:07:25;;;;;;;1.50;0.53;;;;;;;-145.69;95.54;70904.97;5081151;28;20203;-78
2021/11/03 05:13:13;;;;;;;0.87;0.70;;;;;;;-145.69;93.03;70895.00;5076974;28;20687;-77
2021/11/03 05:15:39;;;;;;;0.83;0.50;;;;;;;-145.69;90.46;70881.09;5075775;28;20693;-77
2021/11/03 05:21:28;;;;;;;0.93;0.50;;;;;;;-145.69;94.42;70877.09;5076520;28;20222;-78
2021/11/03 05:23:58;;;;;;;0.40;0.40;;;;;;;-145.69;92.75;70885.06;5075957;28;20264;-78
2021/11/03 05:26:27;;;;;;;0.97;0.60;;;;;;;-145.69;92.08;70885.06;5075860;28;20621;-79
2021/11/03 05:28:57;;;;;;;1.57;0.53;;;;;;;-145.69;97.09;70908.94;5076081;28;20565;-78
2021/11/03 05:34:46;;;;;;;2.60;0.80;;;;;;;-145.69;99.97;70946.75;5076114;28;20194;-78
2021/11/03 05:37:15;;;;;;;0.77;0.50;;;;;;;-145.69;96.82;70944.75;5075863;28;20203;-79
2021/11/03 05:43:11;;;;;;;1.00;0.70;;;;;;;-145.69;96.60;70952.72;5059089;28;20229;-78
2021/11/03 05:49:05;;;;;;;4.10;1.70;;;;;;;-145.69;97.00;70968.63;5075998;28;20209;-78
2021/11/03 05:55:13;;;;;;;6.50;2.57;;;;;;;-145.69;100.00;71018.38;5076388;28;20236;-78
2021/11/03 06:01:04;;;;;;;5.63;1.53;;;;;;;-145.69;100.00;71048.22;5075683;28;20249;-79
2021/11/03 06:03:30;;;;;;;6.07;0.70;;;;;;;-145.69;100.00;71044.22;5075463;28;20264;-78
2021/11/03 06:09:18;;;;;;;1.60;0.60;;;;;;;-145.69;100.00;71028.31;5075611;28;20255;-78
2021/11/03 06:11:47;;;;;;;0.50;0.50;;;;;;;-145.69;99.58;71020.34;5075312;28;20203;-78
2021/11/03 06:18:08;;;;;;;2.10;0.60;;;;;;;-145.69;98.81;70994.50;5075655;28;20236;-78
2021/11/03 06:24:11;;;;;;;3.03;0.50;;;;;;;-145.69;100.00;70994.50;5075649;28;20278;-79
2021/11/03 06:26:37;;;;;;;1.27;0.70;;;;;;;-145.69;100.00;70996.47;5074277;28;20569;-78
2021/11/03 06:29:06;;;;;;;0.90;0.63;;;;;;;-145.69;99.49;71002.44;5075308;28;20209;-78
2021/11/03 06:34:56;;;;;;;0.60;0.60;;;;;;;-145.69;98.91;71002.44;5075234;28;20248;-79
2021/11/03 06:37:22;;;;;;;1.30;0.67;;;;;;;-145.69;98.33;70998.47;5071254;28;20211;-78
2021/11/03 06:43:10;;;;;;;0.67;0.67;;;;;;;-145.69;95.76;70992.50;5074568;28;20279;-78
2021/11/03 06:49:00;;;;;;;1.23;0.80;;;;;;;-145.69;91.42;70944.75;5074850;28;20683;-78
2021/11/03 06:51:27;;;;;;;0.70;0.70;;;;;;;-145.69;93.03;70940.78;5073754;28;20198;-78
2021/11/03 06:53:54;;;;;;;1.93;0.57;;;;;;;-145.69;92.62;70948.72;5074312;28;20207;-78
2021/11/03 06:59:45;;;;;;;3.13;1.00;;;;;;;-145.69;90.07;70938.78;5073983;28;20228;-78
2021/11/03 07:02:16;;;;;;;2.87;1.60;;;;;;;-145.69;91.22;70936.78;5073411;28;20211;-78
2021/11/03 07:08:25;;;;;;;0.90;0.67;;;;;;;-145.69;89.28;70897.00;5074444;28;20550;-79
2021/11/03 07:10:54;;;;;;;0.87;0.77;;;;;;;-145.69;89.24;70902.97;5072100;28;20229;-78
2021/11/03 07:16:42;;;;;;;1.40;0.70;;;;;;;-145.69;87.33;70912.91;5074272;28;20248;-78
2021/11/03 07:19:08;;;;;;;1.30;0.70;;;;;;;-145.69;84.99;70887.06;5073627;28;20205;-78
2021/11/03 07:21:36;;;;;;;1.23;0.70;;;;;;;-145.69;87.48;70877.09;5073256;28;20222;-79
2021/11/03 07:27:26;;;;;;;2.40;0.80;;;;;;;-145.69;87.33;70853.22;5074705;28;20193;-77
2021/11/03 07:33:14;;;;;;;0.77;0.70;;;;;;;-145.69;86.04;70843.28;5074720;28;20194;-77
2021/11/03 07:35:42;;;;;;;0.73;0.70;;;;;;;-145.69;85.00;70831.34;5077874;28;20203;-78
2021/11/03 07:42:07;;;;;;;1.77;0.70;;;;;;;-145.69;88.17;70823.38;5074019;28;20688;-78
2021/11/03 07:52:22;;;;;;;1.10;0.90;;;;;;;-145.69;85.17;70815.44;5073849;28;20201;-78
2021/11/03 07:58:13;;;;;;;1.20;0.77;;;;;;;-145.69;83.65;70809.47;5073987;28;20274;-77
2021/11/03 08:04:01;;;;;;;1.97;0.90;;;;;;;-145.69;82.89;70805.47;5073638;28;20240;-77
2021/11/03 08:09:50;;;;;;;1.03;0.70;;;;;;;-145.69;83.89;70779.63;5073421;28;20269;-77
2021/11/03 08:12:19;;;;;;;1.00;0.60;;;;;;;-145.69;86.09;70779.63;5072812;28;20304;-79
2021/11/03 08:18:07;;;;;;;1.60;0.60;;;;;;;-145.69;84.42;70745.78;5073383;28;20282;-79
2021/11/03 08:23:55;;;;;;;0.50;0.50;;;;;;;-145.69;81.74;70708.00;5073284;28;20240;-78
2021/11/03 08:26:22;;;;;;;0.90;0.80;;;;;;;-145.69;82.07;70668.19;5072493;28;20194;-78
2021/11/03 08:32:15;;;;;;;1.23;0.60;;;;;;;-145.69;84.65;70632.38;5073249;28;20194;-79
2021/11/03 08:34:42;;;;;;;0.60;0.60;;;;;;;-145.69;78.19;70616.47;5073100;28;20211;-77
2021/11/03 08:37:12;;;;;;;2.67;1.27;;;;;;;-145.69;78.96;70626.41;5072643;28;20202;-77
2021/11/03 08:43:02;;;;;;;0.90;0.60;;;;;;;-145.69;77.66;70554.81;5073123;28;20194;-77
2021/11/03 08:48:51;;;;;;;3.87;1.00;;;;;;;-145.69;75.51;70451.34;5064047;28;20248;-77
2021/11/03 08:51:17;;;;;;;2.77;1.60;;;;;;;-145.69;76.63;70461.31;5072419;28;20314;-77
2021/11/03 08:57:06;;;;;;;4.67;1.40;;;;;;;-145.69;73.82;70457.31;5073224;28;20193;-76
2021/11/03 08:59:35;;;;;;;2.03;1.10;;;;;;;-145.69;71.54;70437.44;5072411;28;20203;-77
2021/11/03 09:05:24;;;;;;;1.53;1.00;;;;;;;-145.69;72.47;70415.53;5072147;28;20660;-77
2021/11/03 09:11:32;;;;;;;2.37;1.00;;;;;;;-145.69;73.39;70371.78;5074331;28;20260;-77
2021/11/03 09:17:22;;;;;;;1.27;0.97;;;;;;;-145.69;68.16;70411.56;5073070;28;20278;-77
2021/11/03 09:19:48;;;;;;;1.27;1.00;;;;;;;-145.69;67.69;70415.53;5072139;28;20206;-77
2021/11/03 09:22:15;;;;;;;2.40;0.80;;;;;;;-145.69;69.78;70435.44;5072811;28;20223;-77
2021/11/03 09:28:04;;;;;;;1.00;0.87;;;;;;;-145.69;69.87;70379.72;5072993;28;20256;-77
2021/11/03 09:33:53;;;;;;;1.30;0.80;;;;;;;-145.69;70.53;70449.38;5075218;28;20186;-76
2021/11/03 09:40:31;;;;;;;1.10;0.60;;;;;;;-145.69;72.50;70459.31;5076299;28;20194;-77
2021/11/03 09:46:40;;;;;;;0.67;0.60;;;;;;;-145.69;72.98;70407.59;5076023;28;20193;-77
2021/11/03 09:56:59;;;;;;;0.73;0.70;;;;;;;-145.69;73.18;70449.38;5075890;28;20886;-77
2021/11/03 09:59:32;;;;;;;1.43;1.00;;;;;;;-145.69;74.96;70393.66;5075550;28;20204;-77
2021/11/03 10:05:47;;;;;;;2.20;0.80;;;;;;;-145.69;75.16;70449.38;5075667;28;20278;-76
2021/11/03 10:15:25;;;;;;;1.70;1.10;;;;;;;-145.69;76.74;70431.47;5055427;28;20238;-77
2021/11/03 10:21:18;;;;;;;3.43;1.43;;;;;;;-145.69;76.60;70415.53;5055210;28;20322;-77
2021/11/03 10:23:52;;;;;;;9.73;4.27;;;;;;;-145.69;76.80;70447.38;5054797;28;20199;-76
2021/11/03 10:26:27;;;;;;;7.10;3.20;;;;;;;-145.69;76.41;70419.53;5054571;28;20322;-77
2021/11/03 10:29:08;;;;;;;5.73;2.90;;;;;;;-145.69;81.54;70522.97;5053907;28;20203;-76
2021/11/03 10:31:43;;;;;;;7.93;2.33;;;;;;;-145.69;85.27;70570.72;5053909;28;20199;-76
2021/11/03 10:34:20;;;;;;;6.53;2.50;;;;;;;-145.69;87.76;70612.50;5054607;28;20609;-76
2021/11/03 10:36:48;;;;;;;4.53;2.30;;;;;;;-145.69;85.42;70558.78;5054538;28;20203;-76
2021/11/03 10:39:18;;;;;;;4.43;2.17;;;;;;;-145.69;87.78;70558.78;5054456;28;20199;-78
2021/11/03 10:41:54;;;;;;;5.87;2.07;;;;;;;-145.69;88.96;70566.75;5054088;28;20281;-78
2021/11/03 10:44:24;;;;;;;4.47;2.13;;;;;;;-145.69;85.19;70534.91;5054449;28;20257;-79
2021/11/03 10:46:55;;;;;;;4.00;1.90;;;;;;;-145.69;83.41;70522.97;5054728;28;20294;-78
2021/11/03 10:49:28;;;;;;;8.30;1.70;;;;;;;-145.69;79.46;70538.88;5055091;28;20207;-79
2021/11/03 10:52:01;;;;;;;3.00;1.30;;;;;;;-145.69;79.02;70556.78;5053481;28;20238;-77
2021/11/03 10:54:39;;;;;;;4.90;1.20;;;;;;;-145.69;78.11;70564.75;5054582;28;20238;-77
2021/11/03 10:57:19;;;;;;;2.23;1.30;;;;;;;-145.69;76.60;70602.56;5069382;28;20199;-78
2021/11/03 10:59:48;;;;;;;3.43;1.07;;;;;;;-145.69;77.57;70582.66;5054631;28;20203;-78
2021/11/03 11:02:24;;;;;;;2.13;1.20;;;;;;;-145.69;78.08;70542.88;5054497;28;20281;-77
2021/11/03 11:04:51;;;;;;;46.07;13.73;;;;;;;-145.69;72.99;70497.09;5067494;28;20213;-78
2021/11/03 11:07:25;;;;;;;50.03;17.23;;;;;;;-145.69;72.78;70455.34;5074452;28;20207;-77
2021/11/03 11:09:58;;;;;;;6.97;3.47;;;;;;;-145.69;76.46;70419.53;5074306;28;20198;-78
2021/11/03 11:12:28;;;;;;;2.90;1.70;;;;;;;-145.69;73.63;70393.66;5074437;28;20206;-78
2021/11/03 11:14:58;;;;;;;2.33;1.20;;;;;;;-145.69;70.58;70373.78;5073061;28;20661;-79
2021/11/03 11:17:31;;;;;;;4.68;1.10;;;;;;;-145.69;68.72;70349.91;5073778;28;20233;-78
2021/11/03 11:20:09;;;;;;;2.28;1.02;;;;;;;-145.69;69.19;70375.75;5073771;28;20592;-78
2021/11/03 11:22:47;;;;;;;3.35;1.70;;;;;;;-145.69;70.02;70339.94;5074220;28;20230;-78
2021/11/03 11:25:17;;;;;;;3.60;1.75;;;;;;;-145.69;72.62;70330.00;5073809;28;20673;-78
2021/11/03 11:27:55;;;;;;;2.25;1.17;;;;;;;-145.69;70.99;70308.13;5074139;28;20195;-78
2021/11/03 11:30:24;;;;;;;29.67;12.07;;;;;;;-145.69;67.62;70296.19;5073913;28;20256;-78
2021/11/03 11:33:02;;;;;;;68.13;30.90;;;;;;;-145.69;70.75;70330.00;5073615;28;20211;-78
2021/11/03 11:35:41;;;;;;;22.38;9.55;;;;;;;-145.69;70.34;70330.00;5073406;28;20710;-78
2021/11/03 11:38:24;;;;;;;3.03;1.20;;;;;;;-145.69;70.12;70343.94;5072464;28;20253;-78
2021/11/03 11:40:55;;;;;;;3.95;1.48;;;;;;;-145.69;73.47;70332.00;5073483;28;20260;-78
2021/11/03 11:43:31;;;;;;;3.35;1.60;;;;;;;-145.69;70.58;70335.97;5073695;28;20203;-78
2021/11/03 11:46:00;;;;;;;1.58;1.20;;;;;;;-145.69;71.71;70469.25;5073770;28;20229;-78
2021/11/03 11:48:33;;;;;;;3.85;1.30;;;;;;;-145.69;75.62;70509.03;5073663;28;20195;-78
2021/11/03 11:51:03;;;;;;;1.93;1.23;;;;;;;-145.69;75.82;70554.81;5073595;28;20198;-77
2021/11/03 11:53:33;;;;;;;5.37;1.27;;;;;;;-145.69;74.78;70570.72;5073164;28;20227;-77
2021/11/03 11:56:19;;;;;;;1.53;0.90;;;;;;;-145.69;78.04;70606.53;5073034;28;20199;-77
2021/11/03 11:58:48;;;;;;;2.10;1.10;;;;;;;-145.69;79.45;70614.47;5073352;28;20285;-77
2021/11/03 12:01:27;;;;;;;2.67;1.03;;;;;;;-145.69;80.12;70606.53;5073298;28;20223;-78
2021/11/03 12:04:24;;;;;;;1.97;0.93;;;;;;;-145.69;83.80;70618.47;5073033;28;20203;-78
2021/11/03 12:07:23;;;;;;;2.70;1.10;;;;;;;-145.69;86.49;70626.41;5073155;28;20203;-78
2021/11/03 12:10:27;;;;;;;2.53;1.00;;;;;;;-145.69;90.98;70686.09;5072971;28;20198;-77
2021/11/03 12:13:22;;;;;;;5.67;1.30;;;;;;;-145.69;92.49;70715.94;5011181;28;20289;-78
2021/11/03 12:16:09;;;;;;;2.90;1.20;;;;;;;-145.69;94.79;70727.88;5072889;28;20229;-77
2021/11/03 12:18:45;;;;;;;1.90;1.20;;;;;;;-145.69;96.97;70747.78;5073184;28;20285;-78
2021/11/03 12:21:16;;;;;;;2.77;1.20;;;;;;;-145.69;100.00;70755.75;5071946;28;20293;-80
2021/11/03 12:23:50;;;;;;;4.27;1.57;;;;;;;-145.69;99.71;70789.56;5071820;28;20531;-80
2021/11/03 12:26:44;;;;;;;3.10;1.57;;;;;;;-145.69;100.00;70797.53;5073109;28;20203;-80
2021/11/03 12:29:27;;;;;;;3.00;1.73;;;;;;;-145.69;100.00;70793.53;5072600;28;20206;-80
2021/11/03 12:32:00;;;;;;;65.43;24.20;;;;;;;-145.69;100.00;70777.63;5073324;28;20537;-80
2021/11/03 12:34:38;;;;;;;30.63;13.17;;;;;;;-145.69;100.00;70775.63;5073158;28;20202;-80
2021/11/03 12:37:30;;;;;;;6.77;3.83;;;;;;;-145.69;100.00;70763.69;5073289;28;20285;-80
2021/11/03 12:40:00;;;;;;;4.07;1.93;;;;;;;-145.69;100.00;70735.84;5072855;28;20207;-80
2021/11/03 12:42:31;;;;;;;2.37;1.57;;;;;;;-145.69;100.00;70713.97;5072514;28;20233;-80
2021/11/03 12:45:16;;;;;;;3.73;1.70;;;;;;;-145.69;100.00;70711.97;5072828;28;20562;-80
2021/11/03 12:47:50;;;;;;;5.50;1.80;;;;;;;-145.69;100.00;70698.03;5072587;28;20205;-81
2021/11/03 12:50:24;;;;;;;6.73;1.80;;;;;;;-145.69;100.00;70709.97;5087140;28;20628;-80
2021/11/03 12:53:04;;;;;;;3.63;1.70;;;;;;;-145.69;100.00;70698.03;5092816;28;20319;-81
2021/11/03 12:55:33;;;;;;;2.53;1.80;;;;;;;-145.69;100.00;70709.97;5092722;28;20211;-82
2021/11/03 12:58:02;;;;;;;2.83;1.80;;;;;;;-145.69;100.00;70684.13;5092648;28;20671;-79
2021/11/03 13:00:35;;;;;;;5.57;1.93;;;;;;;-145.69;100.00;70698.03;5092659;28;20665;-81
2021/11/03 13:03:06;;;;;;;5.07;2.20;;;;;;;-145.69;100.00;70708.00;5091667;28;20460;-81
2021/11/03 13:05:36;;;;;;;5.40;1.70;;;;;;;-145.69;100.00;70721.91;5092760;28;20247;-81
2021/11/03 13:08:06;;;;;;;2.87;1.90;;;;;;;-145.69;100.00;70721.91;5074894;28;20569;-81
2021/11/03 13:10:36;;;;;;;3.20;2.20;;;;;;;-145.69;100.00;70721.91;5076346;28;20206;-80
2021/11/03 13:13:07;;;;;;;5.67;2.23;;;;;;;-145.69;100.00;70741.81;5076161;28;20206;-79
2021/11/03 13:15:37;;;;;;;4.40;2.20;;;;;;;-145.69;100.00;70765.69;5076404;28;20203;-79
2021/11/03 13:18:13;;;;;;;3.43;2.10;;;;;;;-145.69;100.00;70769.66;5076211;28;20198;-81
2021/11/03 13:20:56;;;;;;;3.93;2.07;;;;;;;-145.69;100.00;70765.69;5076228;28;20195;-81
2021/11/03 13:23:25;;;;;;;4.17;2.10;;;;;;;-145.69;100.00;70763.69;5075946;28;20233;-81
2021/11/03 13:25:55;;;;;;;3.63;2.23;;;;;;;-145.69;100.00;70781.59;5076233;28;20209;-81
2021/11/03 13:28:32;;;;;;;5.07;2.37;;;;;;;-145.69;100.00;70765.69;5075731;28;20205;-81
2021/11/03 13:31:01;;;;;;;4.77;2.30;;;;;;;-145.69;100.00;70757.72;5076053;28;20214;-81
2021/11/03 13:33:32;;;;;;;4.87;2.60;;;;;;;-145.69;100.00;70777.63;5075625;28;20203;-81
2021/11/03 13:36:18;;;;;;;3.23;2.37;;;;;;;-145.69;100.00;70795.53;5075862;28;20739;-81
2021/11/03 13:38:56;;;;;;;7.60;2.90;;;;;;;-145.69;100.00;70805.47;5075769;28;20645;-81
2021/11/03 13:41:27;;;;;;;4.83;3.17;;;;;;;-145.69;100.00;70791.56;5075635;28;20202;-79
2021/11/03 13:44:22;;;;;;;11.37;4.60;;;;;;;-145.69;100.00;70797.53;5076112;28;20237;-82
2021/11/03 13:46:51;;;;;;;8.43;4.07;;;;;;;-145.69;100.00;70783.59;5075839;28;20245;-83
2021/11/03 13:49:22;;;;;;;6.87;3.67;;;;;;;-145.69;100.00;70777.63;5075556;28;20206;-80
2021/11/03 13:51:55;;;;;;;6.13;3.00;;;;;;;-145.69;100.00;70773.66;5075433;28;20205;-83
2021/11/03 13:54:31;;;;;;;3.87;2.10;;;;;;;-145.69;100.00;70767.69;5075562;28;20198;-80
2021/11/03 13:57:00;;;;;;;5.03;2.63;;;;;;;-145.69;100.00;70767.69;5075184;28;20611;-80
2021/11/03 13:59:30;;;;;;;3.77;1.77;;;;;;;-145.69;100.00;70769.66;5075386;28;20237;-78
2021/11/03 14:02:35;;;;;;;1.97;1.47;;;;;;;-145.69;100.00;70769.66;5075470;28;20279;-80
2021/11/03 14:05:30;;;;;;;1.33;1.00;;;;;;;-145.69;100.00;70767.69;5075717;28;20724;-80
2021/11/03 14:07:57;;;;;;;1.23;0.80;;;;;;;-145.69;100.00;70761.72;5075172;28;20650;-79
2021/11/03 14:10:26;;;;;;;1.73;1.10;;;;;;;-145.69;100.00;70777.63;5075259;28;20199;-82
2021/11/03 14:12:53;;;;;;;2.30;1.00;;;;;;;-145.69;100.00;70781.59;5075247;28;20646;-81
2021/11/03 14:15:28;;;;;;;1.60;1.00;;;;;;;-145.69;100.00;70787.56;5075141;28;20568;-80
2021/11/03 14:17:55;;;;;;;1.23;1.10;;;;;;;-145.69;100.00;70793.53;5074956;28;20202;-81
2021/11/03 14:20:33;;;;;;;1.33;0.90;;;;;;;-145.69;100.00;70799.50;5074528;28;20294;-82
2021/11/03 14:23:00;;;;;;;1.10;1.00;;;;;;;-145.69;100.00;70791.56;5074911;28;20230;-79
2021/11/03 14:25:31;;;;;;;2.57;1.30;;;;;;;-145.69;100.00;70817.41;5074925;28;20209;-82
2021/11/03 14:28:00;;;;;;;3.60;1.47;;;;;;;-145.69;100.00;70843.28;5074895;28;20213;-80
2021/11/03 14:30:29;;;;;;;2.93;1.70;;;;;;;-145.69;100.00;70853.22;5074515;28;20206;-79
2021/11/03 14:32:56;;;;;;;3.10;1.97;;;;;;;-145.69;100.00;70855.22;5076462;28;20570;-79
2021/11/03 14:35:27;;;;;;;3.90;2.77;;;;;;;-145.69;100.00;70835.31;5076995;28;20282;-78
2021/11/03 14:37:55;;;;;;;5.63;3.27;;;;;;;-145.69;100.00;70823.38;5075643;28;20207;-78
2021/11/03 14:40:25;;;;;;;6.20;3.30;;;;;;;-145.69;100.00;70829.34;5074365;28;20230;-77
2021/11/03 14:42:54;;;;;;;4.67;2.30;;;;;;;-145.69;100.00;70829.34;5075072;28;20227;-78
2021/11/03 14:45:21;;;;;;;3.77;2.17;;;;;;;-145.69;100.00;70841.28;5074891;28;20199;-78
2021/11/03 14:47:49;;;;;;;5.17;2.90;;;;;;;-145.69;100.00;70853.22;5074851;28;20194;-79
2021/11/03 14:50:20;;;;;;;4.73;2.83;;;;;;;-145.69;100.00;70845.28;5074733;28;20209;-79
2021/11/03 14:52:48;;;;;;;6.77;3.53;;;;;;;-145.69;100.00;70839.31;5074029;28;20700;-78
2021/11/03 14:55:25;;;;;;;6.20;3.33;;;;;;;-145.69;100.00;70831.34;5074812;28;20198;-78
2021/11/03 14:57:51;;;;;;;3.43;2.30;;;;;;;-145.69;100.00;70821.41;5074486;28;20201;-77
2021/11/03 15:00:22;;;;;;;3.93;2.67;;;;;;;-145.69;100.00;70817.41;5074613;28;20202;-79
2021/11/03 15:02:54;;;;;;;1.30;1.00;;;;;;;-145.69;100.00;70831.34;5074427;28;20604;-79
2021/11/03 15:05:25;;;;;;;1.37;1.10;;;;;;;-145.69;100.00;70847.25;5074287;28;20692;-77
2021/11/03 15:07:52;;;;;;;1.50;0.77;;;;;;;-145.69;100.00;70849.25;5073934;28;20660;-77
2021/11/03 15:10:21;;;;;;;0.70;0.70;;;;;;;-145.69;100.00;70859.19;5074042;28;20661;-79
2021/11/03 15:12:48;;;;;;;1.23;0.80;;;;;;;-145.69;100.00;70859.19;5074227;28;20680;-78
2021/11/03 15:15:16;;;;;;;1.47;0.93;;;;;;;-145.69;100.00;70861.19;5074191;28;20210;-77
2021/11/03 15:17:45;;;;;;;1.48;1.10;;;;;;;-145.69;100.00;70873.13;5073293;28;20541;-77
2021/11/03 15:20:21;;;;;;;22.30;9.07;;;;;;;-145.69;100.00;70877.09;5074323;28;20248;-76
2021/11/03 15:22:48;;;;;;;21.67;9.63;;;;;;;-145.69;100.00;70871.13;5073356;28;20230;-77
2021/11/03 15:25:18;;;;;;;14.20;6.20;;;;;;;-145.69;100.00;70873.13;5073821;28;20676;-78
2021/11/03 15:27:44;;;;;;;2.17;1.20;;;;;;;-145.69;100.00;70881.09;5073922;28;20198;-78
2021/11/03 15:30:17;;;;;;;1.20;1.10;;;;;;;-145.69;100.00;70879.09;5072765;28;20305;-78
2021/11/03 15:32:49;;;;;;;2.00;1.50;;;;;;;-145.69;100.00;70889.03;5074134;28;20198;-77
2021/11/03 15:35:20;;;;;;;1.50;1.40;;;;;;;-145.69;100.00;70897.00;5073561;28;20676;-78
2021/11/03 15:37:46;;;;;;;1.13;1.00;;;;;;;-145.69;100.00;70897.00;5073864;28;20207;-77
2021/11/03 15:40:20;;;;;;;1.47;1.30;;;;;;;-145.69;100.00;70891.03;5073692;28;20198;-77
2021/11/03 15:42:48;;;;;;;5.30;1.20;;;;;;;-145.69;100.00;70906.94;5073431;28;20223;-77
2021/11/03 15:45:15;;;;;;;2.13;1.20;;;;;;;-145.69;100.00;70912.91;5073097;28;20243;-75
2021/11/03 15:47:44;;;;;;;1.40;1.00;;;;;;;-145.69;100.00;70920.88;5073463;28;20206;-75
2021/11/03 15:50:20;;;;;;;1.67;1.00;;;;;;;-145.69;100.00;70930.81;5073057;28;20202;-79
2021/11/03 15:52:47;;;;;;;2.97;1.20;;;;;;;-145.69;100.00;70946.75;5053418;28;20238;-78
2021/11/03 15:55:15;;;;;;;1.33;0.90;;;;;;;-145.69;100.00;70946.75;5053417;28;20653;-75
2021/11/03 15:57:56;;;;;;;2.40;1.37;;;;;;;-145.69;100.00;70946.75;5053631;28;20206;-78
2021/11/03 16:00:25;;;;;;;3.93;1.20;;;;;;;-145.69;100.00;70944.75;5052912;28;20199;-75
2021/11/03 16:02:56;;;;;;;2.40;1.60;;;;;;;-145.69;100.00;70956.69;5053040;28;20219;-78
2021/11/03 16:05:27;;;;;;;1.23;1.10;;;;;;;-145.69;100.00;70972.59;5052992;28;20199;-78
2021/11/03 16:07:54;;;;;;;1.27;1.07;;;;;;;-145.69;100.00;70976.59;5052935;28;20208;-79
2021/11/03 16:10:24;;;;;;;3.93;1.10;;;;;;;-145.69;100.00;70984.53;5053312;28;20199;-79
2021/11/03 16:12:50;;;;;;;1.43;1.10;;;;;;;-145.69;100.00;70986.53;5053174;28;20214;-76
2021/11/03 16:15:18;;;;;;;3.33;1.27;;;;;;;-145.69;100.00;71004.44;5053104;28;20566;-76
2021/11/03 16:17:44;;;;;;;1.53;1.20;;;;;;;-145.69;100.00;71012.41;5052885;28;20655;-79
2021/11/03 16:20:13;;;;;;;12.27;8.83;;;;;;;-145.69;100.00;71020.34;5052877;28;20203;-78
2021/11/03 16:22:45;;;;;;;6.00;3.60;;;;;;;-145.69;100.00;71028.31;5053096;28;20567;-78
2021/11/03 16:25:17;;;;;;;5.20;1.70;;;;;;;-145.69;100.00;71022.34;5053294;28;20203;-78
2021/11/03 16:27:43;;;;;;;3.70;1.10;;;;;;;-145.69;100.00;71020.34;5052947;28;20212;-76
2021/11/03 16:30:18;;;;;;;1.83;1.00;;;;;;;-145.69;100.00;71018.38;5053269;28;20639;-76